McNabs Island, Nova Scotia

Past 24 Hour Conditions

This table is a summary of hourly weather conditions for the past 24 hours. This summary includes the following parameters: temperature, humidity, dew point, wind speed and direction, air pressure, visibility and/or wind chill and humidex.
Date / Time
(ADT)
Conditions Temp (°F) Humidity (%) Dew Point (°F) Wind (mph) Pressure (inches) Visibility (miles)
25 April 2014
4:00 N/A 35   86 32 NNW 11 gust 22 29.6 N/A
3:00 N/A 35   86 32 N 14 gust 22 29.5 N/A
2:00 N/A 35   86 32 N 11 gust 22 29.5 N/A
1:00 N/A 35   87 32 N 16 gust 25 29.5 N/A
00:00 N/A 35   89 32 N 13 gust 21 29.5 N/A
24 April 2014
23:00 N/A 35   91 32 NNW 11 gust 20 29.5 N/A
22:00 N/A 35   92 33 N 14 gust 22 29.5 N/A
21:00 N/A 35   91 33 N 13 gust 22 29.5 N/A
20:00 N/A 35   92 33 N 8 gust 18 29.4 N/A
19:00 N/A 35   93 33 N 12 gust 19 29.4 N/A
18:00 N/A 36 93 34 NNW 10 29.4 N/A
17:00 N/A 36 93 34 N 6 29.4 N/A
16:00 N/A 35   93 34 NNE 6 29.4 N/A
15:00 N/A 37 92 35 NE 7 29.3 N/A
14:00 N/A 38 92 36 ENE 8 29.3 N/A
13:00 N/A 38 92 35 ENE 11 gust 22 29.3 N/A
12:00 N/A 37 93 35 ENE 11 gust 20 29.3 N/A
11:00 N/A 37 93 35 ENE 16 gust 31 29.3 N/A
10:00 N/A 37 92 35 ENE 21 gust 27 29.3 N/A
9:00 N/A 38 92 36 ENE 22 gust 32 29.2 N/A
8:00 N/A 38 91 36 ENE 19 gust 29 29.3 N/A
7:00 N/A 39   91 36 ENE 22 gust 29 29.3 N/A
6:00 N/A 39   91 36 ENE 20 gust 30 29.3 N/A
5:00 N/A 39   92 36 ENE 17 gust 26 29.3 N/A
4:00 N/A 38 92 36 ENE 18 gust 28 29.3 N/A
N/A
Not available
 ↑ 
Highest temperature
 ↓ 
Lowest temperature

If you require additional historical weather information, please visit Climate Data Online.